M I D A S
Marine Information and Data Acquisition System
Tripno 1199 of the Zeeleeuw from 2006-12-12 07:46:21 to 2006-12-12 12:17:22
Back to CruiseResearch ActivitiesStationsMapUnderway DataData graphs

EquipmentUnitsComment
TimeDGPSUTC
LatitudeDGPSDM.mWGS84
LongitudeDGPSDM.mWGS84
TemperatureSBE03/SBE38deg celciusITS90
ConductivitySBE21S/mITS90
SalinitySBE21 Practical Salinity Units
ChlorophylAChelsea fluorimeterg/lCalibrated in Aceton
Missing or incorrect values are displayed as -999
Sea surface data collected by the RV Zeeleeuw from 2006-12-12 07:45:14 to 2006-12-12 13:19:31
Time Latitude Longitude Temperature Conductivity Salinity ChlorophylA
2006-12-12 07:47:23 51°13.649 2°55.911 15.9552 0.002314 0.018444 -2.871232
2006-12-12 07:48:23 51°13.689 2°55.8 15.9671 0.002314 0.018443 -2.871232
2006-12-12 07:49:23 51°13.749 2°55.72 15.988 0.002314 0.018443 -2.871232
2006-12-12 07:50:23 51°13.827 2°55.639 16.0651 0.002314 0.018442 -2.871232
2006-12-12 07:51:23 51°13.911 2°55.59 16.028 0.002314 0.018441 -2.871232
2006-12-12 07:52:22 51°13.969 2°55.615 16.0784 0.002314 0.01844 -2.871232
2006-12-12 07:53:22 51°13.976 2°55.577 9.8429 2.912436 23.947228 -2.871232
2006-12-12 07:54:21 51°14.056 2°55.479 9.5285 2.971304 25.499123 -2.871232
2006-12-12 07:55:20 51°14.224 2°55.321 9.4567 2.911212 25.129184 -2.871232
2006-12-12 07:56:20 51°14.376 2°55.068 9.4669 2.904904 25.135091 -2.871232
2006-12-12 07:57:20 51°14.564 2°54.86 9.6824 3.097212 26.904936 -2.871232
2006-12-12 07:58:20 51°14.771 2°54.685 9.6445 3.423568 29.927107 -2.871232
2006-12-12 07:59:20 51°14.973 2°54.501 9.9524 3.417253 29.919338 -2.871232
2006-12-12 08:00:20 51°15.173 2°54.317 10.0537 3.581085 31.222258 -2.871232
2006-12-12 08:01:20 51°15.375 2°54.128 10.0819 3.603666 31.396692 -2.871232
2006-12-12 08:02:20 51°15.578 2°53.941 10.0836 3.620136 31.52707 -2.871232
2006-12-12 08:03:20 51°15.78 2°53.761 10.119 3.629148 31.610263 -2.871232
2006-12-12 08:04:20 51°15.981 2°53.581 10.1469 3.628526 31.580768 -2.871232
2006-12-12 08:05:20 51°16.183 2°53.398 10.1693 3.641475 31.684154 -2.871232
2006-12-12 08:06:20 51°16.384 2°53.217 10.1815 3.662609 31.871524 -2.871232
2006-12-12 08:07:20 51°16.587 2°53.041 10.2193 3.661159 31.839569 -2.871232
2006-12-12 08:08:20 51°16.791 2°52.868 10.2353 3.680325 31.997974 -2.871232
2006-12-12 08:09:20 51°16.996 2°52.694 10.2594 3.695969 32.13944 -2.871232
2006-12-12 08:10:20 51°17.223 2°52.61 10.2935 3.700217 32.150149 -2.871232
2006-12-12 08:11:20 51°17.457 2°52.593 10.314 3.703636 32.159399 -2.871232
2006-12-12 08:12:20 51°17.69 2°52.579 10.3119 3.722182 32.328725 -2.871232
2006-12-12 08:13:20 51°17.925 2°52.583 10.3202 3.724565 32.348459 -2.871232
2006-12-12 08:14:20 51°18.148 2°52.683 10.3337 3.713271 32.22702 -2.871232
2006-12-12 08:15:20 51°18.32 2°52.935 10.3379 3.709748 32.185628 -2.871232
2006-12-12 08:16:20 51°18.498 2°53.176 10.3396 3.732751 32.400324 -2.871232
2006-12-12 08:17:20 51°18.681 2°53.411 10.334 3.738346 32.46678 -2.871232
2006-12-12 08:18:20 51°18.862 2°53.645 10.3414 3.73959 32.481281 -2.871232
2006-12-12 08:19:20 51°19.048 2°53.871 10.3187 3.729021 32.384916 -2.871232
2006-12-12 08:20:20 51°19.238 2°54.089 10.3314 3.729228 32.386919 -2.871232
2006-12-12 08:21:20 51°19.424 2°54.313 10.316 3.734616 32.44561 -2.871232
2006-12-12 08:22:20 51°19.607 2°54.542 10.3153 3.719488 32.307634 -2.871232
2006-12-12 08:23:20 51°19.796 2°54.766 10.2967 3.716691 32.278953 -2.871232
2006-12-12 08:24:20 51°19.981 2°54.995 10.2923 3.725084 32.371619 -2.871232
2006-12-12 08:25:20 51°20.163 2°55.234 10.2905 3.728503 32.412952 -2.871232
2006-12-12 08:26:20 51°20.343 2°55.484 10.2917 3.726431 32.397038 -2.871232
2006-12-12 08:27:20 51°20.503 2°55.764 10.3005 3.727674 32.40328 -2.871232
2006-12-12 08:28:20 51°20.66 2°56.044 10.3302 3.722286 32.347043 -2.871232
2006-12-12 08:29:20 51°20.802 2°56.337 10.3183 3.728192 32.388461 -2.871232
2006-12-12 08:30:20 51°20.949 2°56.626 10.3459 3.733062 32.42893 -2.871232
2006-12-12 08:31:20 51°21.091 2°56.917 10.3408 3.739486 32.476969 -2.871232
2006-12-12 08:32:20 51°21.227 2°57.221 10.3344 3.748397 32.55648 -2.871232
2006-12-12 08:33:20 51°21.364 2°57.516 10.3536 3.744149 32.519556 -2.871232
2006-12-12 08:34:20 51°21.495 2°57.818 10.326 3.741248 32.494823 -2.871232
2006-12-12 08:35:20 51°21.567 2°58.065 10.3174 3.742906 32.515821 -2.871232
2006-12-12 08:36:20 51°21.604 2°58.242 10.3084 3.741144 32.513704 -2.871232
2006-12-12 08:37:20 51°21.646 2°58.37 10.311 3.741766 32.525522 -2.871232
2006-12-12 08:38:20 51°21.719 2°58.38 10.3055 3.742077 32.530189 -2.871232
2006-12-12 08:39:20 51°21.755 2°58.335 10.2992 3.74187 32.525696 -2.871232
2006-12-12 08:40:20 51°21.743 2°58.269 10.3336 3.722286 32.330551 -2.871232
2006-12-12 08:41:20 51°21.716 2°58.225 10.3678 3.72415 32.31727 -2.871232
2006-12-12 08:42:20 51°21.71 2°58.202 10.3642 3.727569 32.327237 -2.871232
2006-12-12 08:43:20 51°21.706 2°58.163 10.3681 3.734615 32.396889 -2.871232
2006-12-12 08:44:20 51°21.708 2°58.156 10.3502 3.736584 32.415894 -2.871232
2006-12-12 08:45:20 51°21.713 2°58.178 10.319 3.740729 32.480712 -2.871232
2006-12-12 08:46:20 51°21.719 2°58.2 10.3146 3.741766 32.508943 -2.871232
2006-12-12 08:47:20 51°21.713 2°58.216 10.3117 3.741559 32.508596 -2.871232
2006-12-12 08:48:20 51°21.697 2°58.211 10.3094 3.741766 32.511429 -2.871232
2006-12-12 08:49:20 51°21.686 2°58.196 10.3158 3.741973 32.513433 -2.871232
2006-12-12 08:50:20 51°21.683 2°58.188 10.3106 3.742491 32.517614 -2.871232
2006-12-12 08:51:20 51°21.683 2°58.192 10.3107 3.743009 32.525111 -2.871232
2006-12-12 08:52:20 51°21.68 2°58.197 10.3106 3.742906 32.525767 -2.871232
2006-12-12 08:53:20 51°21.676 2°58.202 10.3137 3.742906 32.525767 -2.871232
2006-12-12 08:54:20 51°21.672 2°58.199 10.3113 3.743113 32.526942 -2.871232
2006-12-12 08:55:20 51°21.671 2°58.192 10.3135 3.743113 32.522797 -2.871232
2006-12-12 08:56:20 51°21.677 2°58.175 10.307 3.742906 32.525767 -2.871232
2006-12-12 08:57:20 51°21.684 2°58.163 10.3054 3.742906 32.528255 -2.871232
2006-12-12 08:58:20 51°21.691 2°58.151 10.306 3.742802 32.528911 -2.871232
2006-12-12 08:59:20 51°21.699 2°58.149 10.3078 3.742906 32.529084 -2.871232
2006-12-12 09:00:20 51°21.706 2°58.161 10.3066 3.743113 32.530259 -2.871232
2006-12-12 09:01:20 51°21.713 2°58.181 10.3076 3.743113 32.531089 -2.871232
2006-12-12 09:02:20 51°21.716 2°58.198 10.3057 3.742906 32.529084 -2.871232
2006-12-12 09:03:20 51°21.714 2°58.213 10.3053 3.742698 32.527909 -2.871232
2006-12-12 09:04:20 51°21.707 2°58.225 10.3039 3.742491 32.525075 -2.871232
2006-12-12 09:05:20 51°21.69 2°58.223 10.303 3.742284 32.5239 -2.871232
2006-12-12 09:06:20 51°21.678 2°58.209 10.3021 3.741455 32.51754 -2.871232
2006-12-12 09:07:20 51°21.676 2°58.205 10.302 3.740937 32.514187 -2.871232
2006-12-12 09:08:20 51°21.675 2°58.211 10.2989 3.74073 32.51384 -2.871232
2006-12-12 09:09:20 51°21.675 2°58.223 10.2982 3.740523 32.512664 -2.871232
2006-12-12 09:10:20 51°21.668 2°58.225 10.2987 3.740212 32.511315 -2.871232
2006-12-12 09:11:20 51°21.658 2°58.208 10.2986 3.740004 32.508482 -2.871232
2006-12-12 09:12:20 51°21.658 2°58.185 10.2994 3.739279 32.503123 -2.871232
2006-12-12 09:13:20 51°21.667 2°58.181 10.2987 3.739279 32.503123 -2.871232
2006-12-12 09:14:20 51°21.682 2°58.178 10.2963 3.739072 32.501947 -2.871232
2006-12-12 09:15:20 51°21.7 2°58.173 10.2987 3.739072 32.501947 -2.871232
2006-12-12 09:16:20 51°21.719 2°58.165 10.3043 3.739797 32.509793 -2.871232
2006-12-12 09:17:20 51°21.735 2°58.148 10.2994 3.740833 32.512355 -2.871232
2006-12-12 09:18:20 51°21.738 2°58.137 10.3032 3.740833 32.514842 -2.871232
2006-12-12 09:19:20 51°21.737 2°58.129 10.3014 3.740937 32.515016 -2.871232
2006-12-12 09:20:20 51°21.734 2°58.121 10.3015 3.741041 32.516847 -2.871232
2006-12-12 09:21:20 51°21.731 2°58.108 10.302 3.740833 32.514842 -2.871232
2006-12-12 09:22:20 51°21.73 2°58.099 10.3021 3.740937 32.515845 -2.871232
2006-12-12 09:23:20 51°21.73 2°58.097 10.2978 3.740626 32.514496 -2.871232
2006-12-12 09:24:20 51°21.73 2°58.102 10.2975 3.740523 32.514323 -2.871232
2006-12-12 09:25:20 51°21.729 2°58.11 10.2986 3.740626 32.513667 -2.871232
2006-12-12 09:26:20 51°21.729 2°58.123 10.299 3.740419 32.510833 -2.871232
2006-12-12 09:27:20 51°21.72 2°58.131 10.2986 3.740212 32.509657 -2.871232
2006-12-12 09:28:20 51°21.709 2°58.136 10.2979 3.739797 32.504819 -2.871232
2006-12-12 09:29:20 51°21.709 2°58.15 10.2974 3.739279 32.500636 -2.871232
2006-12-12 09:30:20 51°21.718 2°58.167 10.2939 3.738865 32.497456 -2.871232
2006-12-12 09:31:20 51°21.692 2°58.211 10.2892 3.737829 32.490747 -2.871232
2006-12-12 09:32:20 51°21.693 2°58.335 10.2895 3.736171 32.481337 -2.871232
2006-12-12 09:33:20 51°21.774 2°58.383 10.2801 3.734409 32.470921 -2.871232
2006-12-12 09:34:20 51°21.822 2°58.307 10.2848 3.734409 32.474235 -2.871232
2006-12-12 09:35:20 51°21.824 2°58.238 10.2887 3.736067 32.481991 -2.871232
2006-12-12 09:36:20 51°21.816 2°58.187 10.2934 3.736896 32.485868 -2.871232
2006-12-12 09:37:20 51°21.799 2°58.136 10.2913 3.737621 32.491228 -2.871232
2006-12-12 09:38:20 51°21.789 2°58.104 10.2915 3.737518 32.489397 -2.871232
2006-12-12 09:39:20 51°21.786 2°58.085 10.2913 3.737621 32.492057 -2.871232
2006-12-12 09:40:20 51°21.784 2°58.077 10.2927 3.73731 32.488221 -2.871232
2006-12-12 09:41:20 51°21.782 2°58.072 10.2942 3.737518 32.489397 -2.871232
2006-12-12 09:42:20 51°21.783 2°58.075 10.292 3.737725 32.490573 -2.871232
2006-12-12 09:43:20 51°21.781 2°58.078 10.2895 3.737518 32.490226 -2.871232
2006-12-12 09:44:20 51°21.774 2°58.074 10.2902 3.737207 32.489704 -2.871232
2006-12-12 09:45:20 51°21.767 2°58.058 10.2896 3.736689 32.484692 -2.871232
2006-12-12 09:46:20 51°21.761 2°58.039 10.2874 3.736689 32.484692 -2.871232
2006-12-12 09:47:20 51°21.76 2°58.028 10.2854 3.736378 32.483342 -2.871232
2006-12-12 09:48:20 51°21.762 2°58.031 10.2863 3.736171 32.482994 -2.871232
2006-12-12 09:49:20 51°21.763 2°58.039 10.2838 3.736274 32.483996 -2.871232
2006-12-12 09:50:20 51°21.761 2°58.046 10.282 3.735445 32.477633 -2.871232
2006-12-12 09:51:20 51°21.75 2°58.036 10.2821 3.735342 32.477459 -2.871232
2006-12-12 09:52:20 51°21.744 2°58.014 10.2819 3.735238 32.477285 -2.871232
2006-12-12 09:53:20 51°21.749 2°58.006 10.2823 3.735031 32.476937 -2.871232
2006-12-12 09:54:20 51°21.754 2°58.017 10.2799 3.734927 32.476763 -2.871232
2006-12-12 09:55:20 51°21.757 2°58.036 10.2792 3.734617 32.476241 -2.871232
2006-12-12 09:56:20 51°21.754 2°58.054 10.2765 3.733891 32.470879 -2.871232
2006-12-12 09:57:20 51°21.752 2°58.06 10.2754 3.733684 32.47053 -2.871232
2006-12-12 09:58:20 51°21.754 2°58.063 10.2711 3.733477 32.468525 -2.871232
2006-12-12 09:59:20 51°21.762 2°58.067 10.2763 3.732855 32.467479 -2.871232
2006-12-12 10:00:20 51°21.775 2°58.07 10.2716 3.73327 32.464862 -2.871232
2006-12-12 10:01:20 51°21.789 2°58.071 10.2798 3.73327 32.468176 -2.871232
2006-12-12 10:02:20 51°21.802 2°58.069 10.2775 3.733788 32.466562 -2.871232
2006-12-12 10:03:20 51°21.809 2°58.074 10.2733 3.732959 32.467653 -2.871232
2006-12-12 10:04:21 51°21.792 2°58.091 10.2702 3.732855 32.464165 -2.871232
2006-12-12 10:05:20 51°21.784 2°58.096 10.2611 3.732026 32.464427 -2.871232
2006-12-12 10:06:20 51°21.786 2°58.098 10.2583 3.731405 32.462553 -2.871232
2006-12-12 10:07:20 51°21.793 2°58.101 10.2612 3.73099 32.461855 -2.871232
2006-12-12 10:08:20 51°21.803 2°58.104 10.2555 3.731197 32.462204 -2.871232
2006-12-12 10:09:20 51°21.81 2°58.107 10.2574 3.73099 32.461026 -2.871232
2006-12-12 10:10:20 51°21.814 2°58.116 10.2604 3.73099 32.460197 -2.871232
2006-12-12 10:11:20 51°21.821 2°58.119 10.2582 3.731094 32.459543 -2.871232
2006-12-12 10:12:20 51°21.845 2°58.011 10.2711 3.73099 32.459369 -2.871232
2006-12-12 10:13:20 51°21.736 2°57.902 10.2781 3.73327 32.462377 -2.871232
2006-12-12 10:14:20 51°21.594 2°57.772 10.2421 3.732026 32.461113 -2.871232
2006-12-12 10:15:20 51°21.467 2°57.598 10.2112 3.727468 32.446803 -2.871232
2006-12-12 10:16:20 51°21.408 2°57.442 10.2163 3.723841 32.430734 -2.871232
2006-12-12 10:17:21 51°21.408 2°57.422 10.2162 3.722701 32.417203 -2.871232
2006-12-12 10:18:22 51°21.412 2°57.429 10.2107 3.716795 32.364948 -2.871232
2006-12-12 10:19:21 51°21.414 2°57.437 10.2079 3.719904 32.398379 -2.871232
2006-12-12 10:20:20 51°21.414 2°57.446 10.2036 3.718868 32.389994 -2.871232
2006-12-12 10:21:20 51°21.414 2°57.451 10.2005 3.71607 32.367023 -2.871232
2006-12-12 10:22:20 51°21.415 2°57.456 10.2009 3.714516 32.355271 -2.871232
2006-12-12 10:23:20 51°21.422 2°57.458 10.1937 3.717832 32.388235 -2.871232
2006-12-12 10:24:20 51°21.432 2°57.458 10.209 3.716692 32.377188 -2.871232
2006-12-12 10:25:20 51°21.443 2°57.457 10.1941 3.718972 32.397626 -2.871232
2006-12-12 10:26:20 51°21.447 2°57.458 10.1949 3.716485 32.37932 -2.871232
2006-12-12 10:27:21 51°21.44 2°57.466 10.1899 3.713687 32.351375 -2.871232
2006-12-12 10:28:20 51°21.444 2°57.467 10.1833 3.712133 32.341276 -2.871232
2006-12-12 10:29:20 51°21.451 2°57.465 10.1888 3.716589 32.388609 -2.871232
2006-12-12 10:30:20 51°21.461 2°57.463 10.1935 3.716485 32.383462 -2.871232
2006-12-12 10:31:20 51°21.471 2°57.46 10.1866 3.713895 32.357522 -2.871232
2006-12-12 10:32:20 51°21.478 2°57.459 10.1902 3.715138 32.37206 -2.871232
2006-12-12 10:33:21 51°21.471 2°57.469 10.191 3.715656 32.376254 -2.871232
2006-12-12 10:34:24 51°21.434 2°57.464 10.1879 3.712651 32.347125 -2.871232
2006-12-12 10:35:22 51°21.442 2°57.46 10.1802 3.712133 32.347896 -2.871232
2006-12-12 10:36:21 51°21.486 2°57.439 10.1843 3.707471 32.30435 -2.871232
2006-12-12 10:37:21 51°21.498 2°57.433 10.1928 3.713584 32.355337 -2.871232
2006-12-12 10:38:20 51°21.503 2°57.436 10.1909 3.713584 32.352026 -2.871232
2006-12-12 10:39:20 51°21.508 2°57.438 10.1815 3.718246 32.399711 -2.871232
2006-12-12 10:40:20 51°21.516 2°57.438 10.188 3.711408 32.341692 -2.871232
2006-12-12 10:41:20 51°21.522 2°57.436 10.1926 3.707574 32.298742 -2.871232
2006-12-12 10:42:20 51°21.529 2°57.438 10.1977 3.716174 32.378792 -2.871232
2006-12-12 10:43:20 51°21.532 2°57.442 10.192 3.715863 32.371638 -2.871232
2006-12-12 10:44:20 51°21.534 2°57.447 10.1994 3.717107 32.387003 -2.871232
2006-12-12 10:45:20 51°21.536 2°57.451 10.1874 3.710993 32.328574 -2.871232
2006-12-12 10:46:20 51°21.554 2°57.445 10.1919 3.716174 32.381277 -2.871232
2006-12-12 10:47:20 51°21.615 2°57.483 10.2136 3.715345 32.364133 -2.871232
2006-12-12 10:48:20 51°21.594 2°57.583 10.2075 3.715345 32.345933 -2.871232
2006-12-12 10:49:20 51°21.514 2°57.583 10.1774 3.716485 32.376007 -2.871232
2006-12-12 10:50:20 51°21.458 2°57.47 10.1694 3.714931 32.379992 -2.871232
2006-12-12 10:51:20 51°21.441 2°57.376 10.1745 3.71203 32.358484 -2.871232
2006-12-12 10:52:22 51°21.446 2°57.363 10.1807 3.712859 32.359896 -2.871232
2006-12-12 10:53:23 51°21.451 2°57.364 10.1804 3.709439 32.324261 -2.871232
2006-12-12 10:54:22 51°21.457 2°57.366 10.1717 3.711408 32.345831 -2.871232
2006-12-12 10:55:21 51°21.46 2°57.371 10.1706 3.706953 32.306768 -2.871232
2006-12-12 10:56:20 51°21.462 2°57.374 10.1659 3.712962 32.368357 -2.871232
2006-12-12 10:57:20 51°21.472 2°57.367 10.1673 3.709647 32.337856 -2.871232
2006-12-12 10:58:20 51°21.476 2°57.369 10.1686 3.711201 32.353758 -2.871232
2006-12-12 10:59:20 51°21.477 2°57.374 10.1748 3.712755 32.36469 -2.871232
2006-12-12 11:00:20 51°21.477 2°57.379 10.181 3.711823 32.349021 -2.871232
2006-12-12 11:01:20 51°21.477 2°57.382 10.1816 3.716692 32.390443 -2.871232
2006-12-12 11:02:20 51°21.48 2°57.383 10.1643 3.715242 32.385493 -2.871232
2006-12-12 11:03:20 51°21.484 2°57.384 10.1629 3.712341 32.367298 -2.871232
2006-12-12 11:04:20 51°21.499 2°57.371 10.1669 3.709129 32.337799 -2.871232
2006-12-12 11:05:20 51°21.51 2°57.357 10.1641 3.71317 32.374511 -2.871232
2006-12-12 11:06:20 51°21.519 2°57.35 10.1651 3.712962 32.371672 -2.871232
2006-12-12 11:07:20 51°21.526 2°57.347 10.1686 3.714309 32.385567 -2.871232
2006-12-12 11:08:20 51°21.53 2°57.351 10.1669 3.710476 32.342583 -2.871232
2006-12-12 11:09:20 51°21.529 2°57.357 10.1704 3.712133 32.357832 -2.871232
2006-12-12 11:10:20 51°21.515 2°57.361 10.17 3.708921 32.328339 -2.871232
2006-12-12 11:11:24 51°21.471 2°57.346 10.1506 3.708611 32.332774 -2.871232
2006-12-12 11:12:23 51°21.445 2°57.321 10.1423 3.703327 32.295583 -2.871232
2006-12-12 11:13:22 51°21.463 2°57.383 10.1353 3.70571 32.320359 -2.871232
2006-12-12 11:14:22 51°21.469 2°57.394 10.1424 3.705917 32.328167 -2.871232
2006-12-12 11:15:20 51°21.473 2°57.392 10.1453 3.703845 32.300609 -2.871232
2006-12-12 11:16:20 51°21.477 2°57.395 10.1398 3.69566 32.221212 -2.871232
2006-12-12 11:17:20 51°21.479 2°57.4 10.1344 3.691619 32.187798 -2.871232
2006-12-12 11:18:20 51°21.479 2°57.405 10.1342 3.697628 32.248565 -2.871232
2006-12-12 11:19:20 51°21.478 2°57.41 10.1341 3.70084 32.278901 -2.871232
2006-12-12 11:20:20 51°21.477 2°57.413 10.1346 3.701151 32.282744 -2.871232
2006-12-12 11:21:20 51°21.476 2°57.416 10.1344 3.698768 32.260449 -2.871232
2006-12-12 11:22:20 51°21.473 2°57.417 10.1296 3.699079 32.260985 -2.871232
2006-12-12 11:23:20 51°21.469 2°57.418 10.1319 3.69825 32.257902 -2.871232
2006-12-12 11:24:20 51°21.468 2°57.417 10.1308 3.689443 32.173291 -2.871232
2006-12-12 11:25:20 51°21.467 2°57.419 10.1335 3.690065 32.17355 -2.871232
2006-12-12 11:26:20 51°21.44 2°57.429 10.1274 3.700426 32.275707 -2.871232
2006-12-12 11:27:20 51°21.333 2°57.35 10.124 3.681776 32.101405 -2.871232
2006-12-12 11:28:20 51°21.159 2°57.165 10.1137 3.685196 32.140328 -2.871232
2006-12-12 11:29:20 51°21.013 2°56.885 10.1122 3.658155 31.883081 -2.871232
2006-12-12 11:30:20 51°20.871 2°56.603 10.1086 3.686853 32.165477 -2.871232
2006-12-12 11:31:20 51°20.729 2°56.317 10.1075 3.684574 32.145833 -2.871232
2006-12-12 11:32:20 51°20.588 2°56.028 10.1053 3.694624 32.246682 -2.871232
2006-12-12 11:33:20 51°20.45 2°55.737 10.1026 3.695038 32.251532 -2.871232
2006-12-12 11:34:20 51°20.312 2°55.448 10.1097 3.69421 32.244312 -2.871232
2006-12-12 11:35:20 51°20.174 2°55.163 10.1313 3.698975 32.279001 -2.871232
2006-12-12 11:36:20 51°20.02 2°54.896 10.1425 3.701151 32.282744 -2.871232
2006-12-12 11:37:20 51°19.864 2°54.628 10.1488 3.701047 32.274296 -2.871232
2006-12-12 11:38:20 51°19.696 2°54.382 10.1628 3.699597 32.25279 -2.871232
2006-12-12 11:39:20 51°19.517 2°54.154 10.1802 3.703534 32.274445 -2.871232
2006-12-12 11:40:20 51°19.335 2°53.93 10.1916 3.701876 32.245169 -2.871232
2006-12-12 11:41:20 51°19.152 2°53.711 10.1988 3.704155 32.257354 -2.871232
2006-12-12 11:42:20 51°18.968 2°53.49 10.2073 3.70374 32.245917 -2.871232
2006-12-12 11:43:20 51°18.784 2°53.271 10.2232 3.704362 32.244518 -2.871232
2006-12-12 11:44:20 51°18.601 2°53.055 10.2417 3.707988 32.262316 -2.871232
2006-12-12 11:45:20 51°18.413 2°52.846 10.2521 3.7112 32.280213 -2.871232
2006-12-12 11:46:20 51°18.215 2°52.662 10.2582 3.713272 32.29202 -2.871232
2006-12-12 11:47:20 51°18.002 2°52.529 10.2568 3.712236 32.279523 -2.871232
2006-12-12 11:48:20 51°17.781 2°52.437 10.2572 3.71607 32.316613 -2.871232
2006-12-12 11:49:20 51°17.558 2°52.349 10.2628 3.715033 32.304114 -2.871232
2006-12-12 11:50:20 51°17.33 2°52.324 10.26 3.71607 32.310839 -2.871232
2006-12-12 11:51:20 51°17.102 2°52.328 10.2497 3.712029 32.278342 -2.871232
2006-12-12 11:52:20 51°16.878 2°52.354 10.2431 3.709128 32.258513 -2.871232
2006-12-12 11:53:20 51°16.656 2°52.421 10.2309 3.704362 32.222277 -2.871232
2006-12-12 11:54:20 51°16.437 2°52.513 10.2111 3.693068 32.123689 -2.871232
2006-12-12 11:55:20 51°16.22 2°52.595 10.1487 3.685298 32.078849 -2.871232
2006-12-12 11:56:20 51°16.01 2°52.707 10.1197 3.673177 32.009831 -2.871232
2006-12-12 11:57:20 51°15.809 2°52.853 10.1206 3.66779 31.971551 -2.871232
2006-12-12 11:58:20 51°15.607 2°53.001 10.1015 3.662092 31.926145 -2.871232
2006-12-12 11:59:20 51°15.414 2°53.164 10.0564 3.654115 31.863532 -2.871232
2006-12-12 12:00:20 51°15.228 2°53.341 10.0072 3.62542 31.636612 -2.871232
2006-12-12 12:01:20 51°15.041 2°53.519 9.8559 3.600145 31.43682 -2.871232
2006-12-12 12:02:20 51°14.865 2°53.718 9.9211 3.503614 30.619513 -2.871232
2006-12-12 12:03:20 51°14.757 2°54.004 9.7657 3.459395 30.197256 -2.871232
2006-12-12 12:04:20 51°14.663 2°54.312 9.6926 3.320139 28.947859 -2.871232
2006-12-12 12:05:20 51°14.557 2°54.613 9.7168 3.380289 29.528647 -2.871232
2006-12-12 12:06:20 51°14.435 2°54.886 9.7586 3.374076 29.444875 -2.871232
2006-12-12 12:07:20 51°14.339 2°55.112 9.4989 3.39468 29.641912 -2.871232
2006-12-12 12:08:20 51°14.242 2°55.291 9.1273 2.628118 22.682297 -2.871232
2006-12-12 12:09:20 51°14.145 2°55.405 9.035 2.571789 22.200144 -2.871232
2006-12-12 12:10:20 51°14.04 2°55.482 8.9371 2.399535 20.643977 -2.871232
2006-12-12 12:11:20 51°13.937 2°55.557 9.1034 2.340857 20.122361 -2.871232
2006-12-12 12:12:20 51°13.833 2°55.633 8.9816 2.510403 21.658495 -2.871232
2006-12-12 12:13:20 51°13.75 2°55.719 8.1847 1.391918 11.612231 -2.871232
2006-12-12 12:14:23 51°13.696 2°55.815 8.5161 1.12576 9.284207 -2.871232
2006-12-12 12:15:22 51°13.654 2°55.901 8.1487 1.418211 11.867966 -2.871232
2006-12-12 12:16:21 51°13.624 2°55.982 8.1322 1.071348 8.839269 -2.871232
2006-12-12 12:17:20 51°13.607 2°56.052 8.2886 1.298512 10.844813 -2.871232